createdAt,value
2022-11-07T00:00:12.773Z,35.45
2022-11-07T00:00:47.481Z,35.45
2022-11-07T00:01:12.833Z,35.50
2022-11-07T00:01:42.906Z,35.50
2022-11-07T00:02:13.082Z,35.46
2022-11-07T00:02:43.165Z,35.46
2022-11-07T00:03:13.555Z,35.49
2022-11-07T00:03:43.167Z,35.46
2022-11-07T00:04:13.195Z,35.46
2022-11-07T00:04:43.221Z,35.49
2022-11-07T00:05:13.251Z,35.46
2022-11-07T00:05:43.276Z,35.45
2022-11-07T00:06:13.315Z,35.48
2022-11-07T00:06:43.340Z,35.49
2022-11-07T00:07:13.366Z,35.44
2022-11-07T00:07:43.405Z,35.48
2022-11-07T00:08:13.436Z,35.49
2022-11-07T00:08:43.461Z,35.49
2022-11-07T00:09:13.495Z,35.50
2022-11-07T00:09:43.525Z,35.46
2022-11-07T00:10:13.547Z,35.45
2022-11-07T00:10:43.574Z,35.50
2022-11-07T00:11:13.614Z,35.47
2022-11-07T00:11:43.625Z,35.46
2022-11-07T00:12:13.658Z,35.46
2022-11-07T00:12:43.692Z,35.47
2022-11-07T00:13:14.097Z,35.45
2022-11-07T00:13:43.835Z,35.50
2022-11-07T00:14:13.878Z,35.50
2022-11-07T00:14:43.897Z,35.46
2022-11-07T00:15:13.934Z,35.53
2022-11-07T00:15:43.969Z,35.46
2022-11-07T00:16:13.981Z,35.49
2022-11-07T00:16:44.006Z,35.52
2022-11-07T00:17:14.029Z,35.46
2022-11-07T00:17:44.065Z,35.49
2022-11-07T00:18:14.115Z,35.49
2022-11-07T00:18:44.149Z,35.49
2022-11-07T00:19:14.175Z,35.47
2022-11-07T00:19:44.205Z,35.49
2022-11-07T00:20:14.227Z,35.43
2022-11-07T00:20:44.258Z,35.49
2022-11-07T00:21:14.286Z,35.49
2022-11-07T00:21:44.316Z,35.49
2022-11-07T00:22:14.351Z,35.49
2022-11-07T00:22:44.391Z,35.50
2022-11-07T00:23:14.848Z,35.49
2022-11-07T00:23:44.428Z,35.53
2022-11-07T00:24:14.426Z,35.46
2022-11-07T00:24:44.542Z,35.50
2022-11-07T00:25:14.659Z,35.47
2022-11-07T00:25:44.771Z,35.53
2022-11-07T00:26:14.782Z,35.49
2022-11-07T00:26:44.775Z,35.50
2022-11-07T00:27:14.939Z,35.51
2022-11-07T00:27:45.030Z,35.45
2022-11-07T00:28:15.026Z,35.49
2022-11-07T00:28:45.140Z,35.51
2022-11-07T00:29:15.261Z,35.49
2022-11-07T00:29:45.257Z,35.46
2022-11-07T00:30:15.251Z,35.51
2022-11-07T00:30:45.373Z,35.50
2022-11-07T00:31:15.391Z,35.49
2022-11-07T00:31:45.485Z,35.47
2022-11-07T00:32:15.597Z,35.49
2022-11-07T00:32:45.734Z,35.53
2022-11-07T00:33:16.076Z,35.49
2022-11-07T00:33:45.729Z,35.50
2022-11-07T00:34:15.753Z,35.47
2022-11-07T00:34:45.778Z,35.49
2022-11-07T00:35:15.806Z,35.52
2022-11-07T00:35:45.842Z,35.51
2022-11-07T00:36:15.876Z,35.43
2022-11-07T00:36:45.896Z,35.51
2022-11-07T00:37:15.931Z,35.54
2022-11-07T00:37:46.030Z,35.51
2022-11-07T00:38:16.070Z,35.50
2022-11-07T00:38:46.098Z,35.53
2022-11-07T00:39:16.129Z,35.51
2022-11-07T00:39:46.167Z,35.49
2022-11-07T00:40:16.190Z,35.49
2022-11-07T00:40:46.217Z,35.54
2022-11-07T00:41:16.255Z,35.51
2022-11-07T00:41:46.280Z,35.49
2022-11-07T00:42:16.313Z,35.54
2022-11-07T00:42:46.368Z,35.52
2022-11-07T00:43:16.751Z,35.47
2022-11-07T00:43:46.442Z,35.42
2022-11-07T00:44:16.473Z,35.47
2022-11-07T00:44:46.499Z,35.54
2022-11-07T00:45:16.535Z,35.53
2022-11-07T00:45:46.558Z,35.50
2022-11-07T00:46:16.585Z,35.49
2022-11-07T00:46:46.635Z,35.49
2022-11-07T00:47:16.644Z,35.53
2022-11-07T00:47:46.707Z,35.49
2022-11-07T00:48:16.738Z,35.44
2022-11-07T00:48:46.778Z,35.49
2022-11-07T00:49:16.805Z,35.47
2022-11-07T00:49:46.838Z,35.48
2022-11-07T00:50:16.873Z,35.49
2022-11-07T00:50:46.895Z,35.47
2022-11-07T00:51:16.921Z,35.46
2022-11-07T00:51:46.954Z,35.50
2022-11-07T00:52:16.989Z,35.46
2022-11-07T00:52:47.036Z,35.49
2022-11-07T00:53:17.470Z,35.48
2022-11-07T00:53:47.178Z,35.51
2022-11-07T00:54:17.207Z,35.52
2022-11-07T00:54:47.235Z,35.47
2022-11-07T00:55:17.264Z,35.51
2022-11-07T00:55:47.289Z,35.49
2022-11-07T00:56:17.324Z,35.51
2022-11-07T00:56:47.356Z,35.49
2022-11-07T00:57:17.385Z,35.50
2022-11-07T00:57:47.456Z,35.54
2022-11-07T00:58:17.489Z,35.49
2022-11-07T00:58:47.523Z,35.49
2022-11-07T00:59:17.582Z,35.49
2022-11-07T00:59:47.613Z,35.51
2022-11-07T01:00:17.642Z,35.50
2022-11-07T01:00:47.676Z,35.50
2022-11-07T01:01:17.744Z,35.50
2022-11-07T01:01:47.877Z,35.50
2022-11-07T01:02:18.101Z,35.51
2022-11-07T01:02:48.065Z,35.51
2022-11-07T01:03:18.130Z,35.50
2022-11-07T01:03:48.010Z,35.49
2022-11-07T01:04:18.037Z,35.52
2022-11-07T01:04:48.080Z,35.55
2022-11-07T01:05:18.104Z,35.55
2022-11-07T01:05:48.150Z,35.49
2022-11-07T01:06:18.176Z,35.51
2022-11-07T01:06:48.198Z,35.53
2022-11-07T01:07:18.239Z,35.50
2022-11-07T01:07:48.304Z,35.50
2022-11-07T01:08:18.328Z,35.50
2022-11-07T01:08:48.363Z,35.51
2022-11-07T01:09:18.395Z,35.51
2022-11-07T01:09:48.425Z,35.51
2022-11-07T01:10:18.461Z,35.51
2022-11-07T01:10:48.492Z,35.50
2022-11-07T01:11:18.523Z,35.54
2022-11-07T01:11:48.565Z,35.55
2022-11-07T01:12:18.584Z,35.50
2022-11-07T01:12:48.625Z,35.52
2022-11-07T01:13:18.663Z,35.51
2022-11-07T01:13:48.687Z,35.47
2022-11-07T01:14:18.721Z,35.49
2022-11-07T01:14:48.749Z,35.51
2022-11-07T01:15:18.782Z,35.51
2022-11-07T01:15:48.812Z,35.47
2022-11-07T01:16:18.855Z,35.50
2022-11-07T01:16:48.881Z,35.52
2022-11-07T01:17:18.921Z,35.51
2022-11-07T01:17:48.998Z,35.52
2022-11-07T01:18:19.006Z,35.50
2022-11-07T01:18:49.039Z,35.50
2022-11-07T01:19:19.067Z,35.51
2022-11-07T01:19:49.103Z,35.55
2022-11-07T01:20:19.142Z,35.53
2022-11-07T01:20:49.164Z,35.51
2022-11-07T01:21:19.197Z,35.52
2022-11-07T01:21:49.229Z,35.54
2022-11-07T01:22:19.237Z,35.55
2022-11-07T01:22:49.268Z,35.51
2022-11-07T01:23:19.299Z,35.49
2022-11-07T01:23:49.327Z,35.53
2022-11-07T01:24:19.335Z,35.47
2022-11-07T01:24:49.451Z,35.53
2022-11-07T01:25:19.449Z,35.57
2022-11-07T01:25:49.440Z,35.51
2022-11-07T01:26:19.482Z,35.54
2022-11-07T01:26:49.599Z,35.51
2022-11-07T01:27:19.597Z,35.53
2022-11-07T01:27:49.721Z,35.53
2022-11-07T01:28:19.714Z,35.54
2022-11-07T01:28:49.835Z,35.54
2022-11-07T01:29:19.950Z,35.55
2022-11-07T01:29:50.064Z,35.54
2022-11-07T01:30:20.069Z,35.50
2022-11-07T01:30:50.184Z,35.51
2022-11-07T01:31:20.177Z,35.51
2022-11-07T01:31:50.294Z,35.52
2022-11-07T01:32:20.421Z,35.50
2022-11-07T01:32:50.437Z,35.50
2022-11-07T01:33:20.533Z,35.52
2022-11-07T01:33:50.645Z,35.51
2022-11-07T01:34:20.680Z,35.54
2022-11-07T01:34:50.702Z,35.53
2022-11-07T01:35:20.720Z,35.54
2022-11-07T01:35:50.744Z,35.51
2022-11-07T01:36:20.775Z,35.50
2022-11-07T01:36:50.811Z,35.51
2022-11-07T01:37:20.860Z,35.54
2022-11-07T01:37:50.883Z,35.55
2022-11-07T01:38:20.922Z,35.53
2022-11-07T01:38:50.969Z,35.47
2022-11-07T01:39:20.991Z,35.54
2022-11-07T01:39:51.029Z,35.53
2022-11-07T01:40:21.065Z,35.54
2022-11-07T01:40:51.099Z,35.51
2022-11-07T01:41:21.140Z,35.55
2022-11-07T01:41:51.162Z,35.51
2022-11-07T01:42:21.205Z,35.53
2022-11-07T01:42:51.250Z,35.55
2022-11-07T01:43:21.287Z,35.52
2022-11-07T01:43:51.317Z,35.50
2022-11-07T01:44:21.348Z,35.52
2022-11-07T01:44:51.382Z,35.52
2022-11-07T01:45:21.410Z,35.57
2022-11-07T01:45:51.444Z,35.54
2022-11-07T01:46:21.467Z,35.55
2022-11-07T01:46:51.500Z,35.57
2022-11-07T01:47:21.530Z,35.53
2022-11-07T01:47:51.561Z,35.52
2022-11-07T01:48:21.614Z,35.51
2022-11-07T01:48:51.619Z,35.52
2022-11-07T01:49:21.647Z,35.53
2022-11-07T01:49:51.683Z,35.52
2022-11-07T01:50:24.689Z,35.58
2022-11-07T01:50:51.775Z,35.52
2022-11-07T01:51:21.805Z,35.53
2022-11-07T01:51:51.846Z,35.50
2022-11-07T01:52:21.870Z,35.57
2022-11-07T01:52:51.931Z,35.54
2022-11-07T01:53:21.964Z,35.51
2022-11-07T01:53:51.994Z,35.51
2022-11-07T01:54:22.023Z,35.57
2022-11-07T01:54:52.054Z,35.58
2022-11-07T01:55:22.087Z,35.54
2022-11-07T01:55:52.117Z,35.52
2022-11-07T01:56:22.147Z,35.58
2022-11-07T01:56:52.179Z,35.52
2022-11-07T01:57:22.214Z,35.54
2022-11-07T01:57:52.253Z,35.54
2022-11-07T01:58:22.278Z,35.54
2022-11-07T01:58:52.307Z,35.55
2022-11-07T01:59:22.340Z,35.51
2022-11-07T01:59:52.369Z,35.52
2022-11-07T02:00:22.394Z,35.55
2022-11-07T02:00:52.431Z,35.52
2022-11-07T02:01:22.574Z,35.57
2022-11-07T02:01:52.623Z,35.55
2022-11-07T02:02:22.632Z,35.52
2022-11-07T02:02:52.726Z,35.50
2022-11-07T02:03:22.555Z,35.55
2022-11-07T02:03:52.610Z,35.55
2022-11-07T02:04:22.615Z,35.58
2022-11-07T02:04:52.647Z,35.57
2022-11-07T02:05:22.680Z,35.54
2022-11-07T02:05:52.716Z,35.57
2022-11-07T02:06:22.753Z,35.55
2022-11-07T02:06:52.781Z,35.52
2022-11-07T02:07:22.817Z,35.59
2022-11-07T02:07:52.871Z,35.59
2022-11-07T02:08:22.909Z,35.51
2022-11-07T02:08:52.939Z,35.57
2022-11-07T02:09:22.969Z,35.57
2022-11-07T02:09:52.999Z,35.52
2022-11-07T02:10:23.063Z,35.55
2022-11-07T02:10:53.092Z,35.52
2022-11-07T02:11:23.123Z,35.54
2022-11-07T02:11:53.157Z,35.55
2022-11-07T02:12:23.187Z,35.55
2022-11-07T02:12:53.219Z,35.54
2022-11-07T02:13:23.257Z,35.54
2022-11-07T02:13:53.298Z,35.55
2022-11-07T02:14:23.319Z,35.58
2022-11-07T02:14:53.353Z,35.55
2022-11-07T02:15:23.383Z,35.55
2022-11-07T02:15:53.414Z,35.51
2022-11-07T02:16:23.445Z,35.59
2022-11-07T02:16:53.478Z,35.56
2022-11-07T02:17:23.511Z,35.58
2022-11-07T02:17:53.545Z,35.54
2022-11-07T02:18:23.574Z,35.54
2022-11-07T02:18:53.612Z,35.51
2022-11-07T02:19:23.756Z,35.58
2022-11-07T02:19:53.746Z,35.58
2022-11-07T02:20:23.778Z,35.55
2022-11-07T02:20:53.811Z,35.52
2022-11-07T02:21:23.834Z,35.56
2022-11-07T02:21:53.884Z,35.59
2022-11-07T02:22:23.912Z,35.58
2022-11-07T02:22:53.965Z,35.54
2022-11-07T02:23:23.992Z,35.56
2022-11-07T02:23:54.017Z,35.63
2022-11-07T02:24:24.130Z,35.52
2022-11-07T02:24:54.256Z,35.56
2022-11-07T02:25:24.246Z,35.54
2022-11-07T02:25:54.362Z,35.62
2022-11-07T02:26:24.480Z,35.58
2022-11-07T02:26:54.604Z,35.56
2022-11-07T02:27:24.711Z,35.56
2022-11-07T02:27:54.831Z,35.55
2022-11-07T02:28:24.831Z,35.54
2022-11-07T02:28:54.941Z,35.56
2022-11-07T02:29:25.056Z,35.56
2022-11-07T02:29:55.053Z,35.57
2022-11-07T02:30:25.169Z,35.55
2022-11-07T02:30:55.288Z,35.55
2022-11-07T02:31:25.281Z,35.56
2022-11-07T02:31:55.399Z,35.59
2022-11-07T02:32:25.516Z,35.58
2022-11-07T02:32:55.522Z,35.55
2022-11-07T02:33:25.507Z,35.54
2022-11-07T02:33:55.510Z,35.60
2022-11-07T02:34:25.542Z,35.54
2022-11-07T02:34:55.594Z,35.58
2022-11-07T02:35:25.601Z,35.57
2022-11-07T02:35:55.637Z,35.56
2022-11-07T02:36:25.664Z,35.59
2022-11-07T02:36:55.696Z,35.56
2022-11-07T02:37:25.724Z,35.54
2022-11-07T02:37:55.755Z,35.56
2022-11-07T02:38:25.796Z,35.57
2022-11-07T02:38:55.819Z,35.60
2022-11-07T02:39:25.844Z,35.62
2022-11-07T02:39:55.879Z,35.58
2022-11-07T02:40:25.906Z,35.65
2022-11-07T02:40:55.937Z,35.60
2022-11-07T02:41:25.964Z,35.65
2022-11-07T02:41:55.989Z,35.53
2022-11-07T02:42:26.018Z,35.56
2022-11-07T02:42:56.056Z,35.58
2022-11-07T02:43:26.080Z,35.55
2022-11-07T02:43:56.115Z,35.59
2022-11-07T02:44:26.140Z,35.58
2022-11-07T02:44:56.167Z,35.59
2022-11-07T02:45:26.201Z,35.59
2022-11-07T02:45:56.232Z,35.53
2022-11-07T02:46:26.263Z,35.58
2022-11-07T02:46:56.294Z,35.62
2022-11-07T02:47:26.320Z,35.59
2022-11-07T02:47:56.353Z,35.57
2022-11-07T02:48:26.383Z,35.62
2022-11-07T02:48:56.413Z,35.64
2022-11-07T02:49:26.441Z,35.61
2022-11-07T02:49:56.473Z,35.55
2022-11-07T02:50:26.519Z,35.59
2022-11-07T02:50:56.526Z,35.58
2022-11-07T02:51:26.557Z,35.58
2022-11-07T02:51:56.586Z,35.59
2022-11-07T02:52:26.615Z,35.62
2022-11-07T02:52:56.660Z,35.58
2022-11-07T02:53:26.680Z,35.57
2022-11-07T02:53:56.719Z,35.56
2022-11-07T02:54:26.737Z,35.58
2022-11-07T02:54:56.762Z,35.56
2022-11-07T02:55:26.791Z,35.54
2022-11-07T02:55:56.827Z,35.58
2022-11-07T02:56:26.851Z,35.57
2022-11-07T02:56:56.883Z,35.57
2022-11-07T02:57:26.917Z,35.59
2022-11-07T02:57:56.947Z,35.56
2022-11-07T02:58:26.980Z,35.59
2022-11-07T02:58:57.014Z,35.55
2022-11-07T02:59:27.370Z,35.58
2022-11-07T02:59:57.152Z,35.60
2022-11-07T03:00:27.175Z,35.55
2022-11-07T03:00:57.231Z,35.60
2022-11-07T03:01:27.437Z,35.56
2022-11-07T03:01:57.451Z,35.55
2022-11-07T03:02:27.391Z,35.58
2022-11-07T03:02:57.443Z,35.59
2022-11-07T03:03:27.395Z,35.55
2022-11-07T03:03:57.419Z,35.56
2022-11-07T03:04:27.449Z,35.62
2022-11-07T03:04:57.477Z,35.60
2022-11-07T03:05:27.518Z,35.65
2022-11-07T03:05:57.594Z,35.62
2022-11-07T03:06:27.602Z,35.55
2022-11-07T03:06:57.629Z,35.59
2022-11-07T03:07:27.661Z,35.51
2022-11-07T03:07:57.698Z,35.53
2022-11-07T03:08:27.730Z,35.60
2022-11-07T03:08:57.764Z,35.60
2022-11-07T03:09:27.788Z,35.58
2022-11-07T03:09:57.819Z,35.60
2022-11-07T03:10:27.853Z,35.59
2022-11-07T03:10:57.879Z,35.56
2022-11-07T03:11:27.913Z,35.59
2022-11-07T03:11:57.947Z,35.59
2022-11-07T03:12:27.975Z,35.62
2022-11-07T03:12:58.018Z,35.57
2022-11-07T03:13:28.048Z,35.60
2022-11-07T03:13:58.075Z,35.59
2022-11-07T03:14:28.157Z,35.58
2022-11-07T03:14:58.266Z,35.57
2022-11-07T03:15:28.234Z,35.57
2022-11-07T03:15:58.264Z,35.56
2022-11-07T03:16:28.297Z,35.58
2022-11-07T03:16:58.325Z,35.59
2022-11-07T03:17:28.358Z,35.57
2022-11-07T03:17:58.403Z,35.60
2022-11-07T03:18:28.432Z,35.55
2022-11-07T03:18:58.465Z,35.61
2022-11-07T03:19:28.497Z,35.57
2022-11-07T03:19:58.523Z,35.59
2022-11-07T03:20:28.557Z,35.55
2022-11-07T03:20:58.589Z,35.57
2022-11-07T03:21:28.639Z,35.57
2022-11-07T03:21:58.651Z,35.59
2022-11-07T03:22:28.683Z,35.59
2022-11-07T03:22:58.741Z,35.59
2022-11-07T03:23:28.781Z,35.57
2022-11-07T03:23:58.794Z,35.63
2022-11-07T03:24:28.796Z,35.60
2022-11-07T03:24:58.814Z,35.57
2022-11-07T03:25:28.813Z,35.56
2022-11-07T03:25:58.804Z,35.57
2022-11-07T03:26:28.803Z,35.57
2022-11-07T03:26:58.918Z,35.56
2022-11-07T03:27:28.910Z,35.53
2022-11-07T03:27:58.923Z,35.57
2022-11-07T03:28:28.914Z,35.57
2022-11-07T03:28:58.915Z,35.62
2022-11-07T03:29:28.910Z,35.59
2022-11-07T03:29:59.032Z,35.57
2022-11-07T03:30:29.028Z,35.60
2022-11-07T03:30:59.023Z,35.57
2022-11-07T03:31:29.144Z,35.60
2022-11-07T03:31:59.258Z,35.60
2022-11-07T03:32:29.388Z,35.59
2022-11-07T03:32:59.381Z,35.61
2022-11-07T03:33:29.379Z,35.59
2022-11-07T03:33:59.394Z,35.66
2022-11-07T03:34:29.423Z,35.60
2022-11-07T03:34:59.459Z,35.62
2022-11-07T03:35:29.487Z,35.63
2022-11-07T03:35:59.519Z,35.60
2022-11-07T03:36:29.551Z,35.59
2022-11-07T03:36:59.600Z,35.60
2022-11-07T03:37:29.621Z,35.61
2022-11-07T03:37:59.658Z,35.64
2022-11-07T03:38:29.687Z,35.62
2022-11-07T03:38:59.720Z,35.61
2022-11-07T03:39:29.752Z,35.60
2022-11-07T03:39:59.786Z,35.63
2022-11-07T03:40:29.819Z,35.62
2022-11-07T03:40:59.856Z,35.60
2022-11-07T03:41:29.896Z,35.59
2022-11-07T03:41:59.926Z,35.59
2022-11-07T03:42:29.963Z,35.62
2022-11-07T03:42:59.993Z,35.57
2022-11-07T03:43:30.024Z,35.60
2022-11-07T03:44:00.059Z,35.57
2022-11-07T03:44:30.083Z,35.60
2022-11-07T03:45:00.119Z,35.63
2022-11-07T03:45:30.153Z,35.59
2022-11-07T03:46:00.180Z,35.59
2022-11-07T03:46:30.228Z,35.56
2022-11-07T03:47:00.246Z,35.60
2022-11-07T03:47:30.345Z,35.59
2022-11-07T03:48:00.382Z,35.57
2022-11-07T03:48:30.439Z,35.59
2022-11-07T03:49:00.463Z,35.62
2022-11-07T03:49:30.500Z,35.59
2022-11-07T03:50:00.530Z,35.61
2022-11-07T03:50:30.560Z,35.59
2022-11-07T03:51:00.592Z,35.63
2022-11-07T03:51:30.624Z,35.60
2022-11-07T03:52:00.657Z,35.54
2022-11-07T03:52:30.726Z,35.58
2022-11-07T03:53:00.731Z,35.61
2022-11-07T03:53:30.758Z,35.52
2022-11-07T03:54:00.793Z,35.51
2022-11-07T03:54:30.821Z,35.50
2022-11-07T03:55:00.852Z,35.47
2022-11-07T03:55:30.885Z,35.41
2022-11-07T03:56:00.913Z,35.37
2022-11-07T03:56:30.949Z,35.29
2022-11-07T03:57:00.979Z,35.33
2022-11-07T03:57:31.021Z,35.28
2022-11-07T03:58:01.075Z,35.23
2022-11-07T03:58:31.101Z,35.23
2022-11-07T03:59:01.129Z,35.20
2022-11-07T03:59:31.160Z,35.15
2022-11-07T04:00:01.194Z,35.12
2022-11-07T04:00:31.223Z,35.13
2022-11-07T04:01:01.260Z,35.18
2022-11-07T04:01:31.411Z,35.08
2022-11-07T04:02:01.489Z,35.09
2022-11-07T04:02:31.649Z,35.03
2022-11-07T04:03:01.590Z,35.06
2022-11-07T04:03:31.509Z,35.03
2022-11-07T04:04:01.551Z,35.03
2022-11-07T04:04:31.592Z,34.99
2022-11-07T04:05:01.602Z,34.97
2022-11-07T04:05:31.640Z,35.01
2022-11-07T04:06:01.669Z,34.93
2022-11-07T04:06:31.700Z,34.96
2022-11-07T04:07:01.735Z,34.94
2022-11-07T04:07:31.784Z,34.92
2022-11-07T04:08:01.977Z,34.91
2022-11-07T04:08:31.844Z,34.89
2022-11-07T04:09:01.876Z,34.86
2022-11-07T04:09:31.912Z,34.81
2022-11-07T04:10:01.947Z,34.83
2022-11-07T04:10:31.980Z,34.84
2022-11-07T04:11:02.012Z,34.84
2022-11-07T04:11:32.049Z,34.77
2022-11-07T04:12:02.083Z,34.79
2022-11-07T04:12:32.129Z,34.81
2022-11-07T04:13:02.165Z,34.81
2022-11-07T04:13:32.198Z,34.80
2022-11-07T04:14:02.241Z,34.77
2022-11-07T04:14:32.267Z,34.79
2022-11-07T04:15:02.296Z,34.79
2022-11-07T04:15:32.335Z,34.75
2022-11-07T04:16:02.370Z,34.75
2022-11-07T04:16:32.397Z,34.73
2022-11-07T04:17:02.433Z,34.73
2022-11-07T04:17:32.495Z,34.71
2022-11-07T04:18:02.528Z,34.71
2022-11-07T04:18:32.562Z,34.70
2022-11-07T04:19:02.599Z,34.60
2022-11-07T04:19:32.630Z,34.64
2022-11-07T04:20:02.673Z,34.63
2022-11-07T04:20:32.697Z,34.64
2022-11-07T04:21:02.723Z,34.63
2022-11-07T04:21:32.755Z,34.58
2022-11-07T04:22:02.793Z,34.61
2022-11-07T04:22:32.852Z,34.57
2022-11-07T04:23:02.877Z,34.65
2022-11-07T04:23:32.928Z,34.63
2022-11-07T04:24:02.924Z,34.62
2022-11-07T04:24:33.041Z,34.63
2022-11-07T04:25:03.157Z,34.63
2022-11-07T04:25:33.274Z,34.56
2022-11-07T04:26:03.272Z,34.59
2022-11-07T04:26:33.391Z,34.62
2022-11-07T04:27:03.531Z,34.59
2022-11-07T04:27:33.530Z,34.59
2022-11-07T04:28:03.643Z,34.54
2022-11-07T04:28:33.758Z,34.54
2022-11-07T04:29:03.760Z,34.54
2022-11-07T04:29:33.878Z,34.51
2022-11-07T04:30:03.998Z,34.52
2022-11-07T04:30:34.005Z,34.53
2022-11-07T04:31:04.000Z,34.55
2022-11-07T04:31:33.995Z,34.59
2022-11-07T04:32:03.994Z,34.59
2022-11-07T04:32:33.988Z,34.58
2022-11-07T04:33:04.105Z,34.58
2022-11-07T04:33:34.106Z,34.52
2022-11-07T04:34:04.127Z,34.55
2022-11-07T04:34:34.155Z,34.55
2022-11-07T04:35:04.186Z,34.59
2022-11-07T04:35:34.218Z,34.58
2022-11-07T04:36:04.250Z,34.57
2022-11-07T04:36:34.283Z,34.55
2022-11-07T04:37:04.319Z,34.58
2022-11-07T04:37:34.357Z,34.50
2022-11-07T04:38:04.391Z,34.51
2022-11-07T04:38:34.444Z,34.51
2022-11-07T04:39:04.454Z,34.44
2022-11-07T04:39:34.493Z,34.50
2022-11-07T04:40:04.523Z,34.48
2022-11-07T04:40:34.554Z,34.46
2022-11-07T04:41:04.592Z,34.51
2022-11-07T04:41:34.626Z,34.55
2022-11-07T04:42:04.662Z,34.52
2022-11-07T04:42:34.701Z,34.47
2022-11-07T04:43:04.727Z,34.54
2022-11-07T04:43:34.772Z,34.52
2022-11-07T04:44:04.806Z,34.52
2022-11-07T04:44:34.832Z,34.48
2022-11-07T04:45:04.868Z,34.50
2022-11-07T04:45:34.918Z,34.51
2022-11-07T04:46:04.942Z,34.50
2022-11-07T04:46:34.975Z,34.55
2022-11-07T04:47:05.008Z,34.65
2022-11-07T04:47:40.004Z,34.57
2022-11-07T04:48:05.096Z,34.52
2022-11-07T04:48:35.128Z,34.55
2022-11-07T04:49:05.157Z,34.75
2022-11-07T04:49:35.194Z,34.71
2022-11-07T04:50:05.219Z,34.83
2022-11-07T04:50:35.254Z,34.79
2022-11-07T04:51:05.285Z,34.92
2022-11-07T04:51:35.311Z,34.91
2022-11-07T04:52:05.350Z,34.85
2022-11-07T04:52:35.399Z,34.86
2022-11-07T04:53:05.431Z,34.89
2022-11-07T04:53:35.463Z,34.93
2022-11-07T04:54:05.608Z,34.93
2022-11-07T04:54:35.603Z,34.88
2022-11-07T04:55:05.636Z,34.88
2022-11-07T04:55:35.672Z,34.87
2022-11-07T04:56:05.703Z,34.88
2022-11-07T04:56:35.735Z,34.90
2022-11-07T04:57:05.768Z,34.94
2022-11-07T04:57:35.802Z,34.92
2022-11-07T04:58:05.834Z,34.97
2022-11-07T04:58:35.868Z,34.87
2022-11-07T04:59:05.896Z,34.92
2022-11-07T04:59:35.946Z,34.80
2022-11-07T05:00:06.019Z,34.84
2022-11-07T05:00:36.046Z,34.80
2022-11-07T05:01:06.080Z,34.76
2022-11-07T05:01:36.166Z,34.78
2022-11-07T05:02:06.372Z,34.72
2022-11-07T05:02:36.305Z,34.70
2022-11-07T05:03:06.395Z,34.67
2022-11-07T05:03:41.521Z,34.70
2022-11-07T05:04:06.441Z,34.63
2022-11-07T05:04:36.479Z,34.61
2022-11-07T05:05:06.509Z,34.57
2022-11-07T05:05:36.544Z,34.56
2022-11-07T05:06:06.581Z,34.51
2022-11-07T05:06:36.612Z,34.52
2022-11-07T05:07:06.640Z,34.52
2022-11-07T05:07:36.675Z,34.53
2022-11-07T05:08:06.705Z,34.51
2022-11-07T05:08:36.740Z,34.39
2022-11-07T05:09:06.770Z,34.47
2022-11-07T05:09:36.895Z,34.39
2022-11-07T05:10:11.809Z,34.43
2022-11-07T05:10:36.947Z,34.36
2022-11-07T05:11:07.003Z,34.41
2022-11-07T05:11:37.033Z,34.36
2022-11-07T05:12:07.066Z,34.37
2022-11-07T05:12:37.096Z,34.34
2022-11-07T05:13:07.129Z,34.33
2022-11-07T05:13:37.161Z,34.33
2022-11-07T05:14:07.183Z,34.29
2022-11-07T05:14:37.226Z,34.19
2022-11-07T05:15:07.248Z,34.27
2022-11-07T05:15:37.277Z,34.32
2022-11-07T05:16:07.313Z,34.32
2022-11-07T05:16:37.342Z,34.31
2022-11-07T05:17:07.377Z,34.27
2022-11-07T05:17:37.406Z,34.28
2022-11-07T05:18:07.443Z,34.35
2022-11-07T05:18:37.471Z,34.42
2022-11-07T05:19:07.497Z,34.35
2022-11-07T05:19:37.525Z,34.33
2022-11-07T05:20:07.555Z,34.36
2022-11-07T05:20:37.583Z,34.34
2022-11-07T05:21:07.612Z,34.28
2022-11-07T05:21:37.650Z,34.33
2022-11-07T05:22:07.698Z,34.36
2022-11-07T05:22:37.739Z,34.35
2022-11-07T05:23:07.773Z,34.25
2022-11-07T05:23:37.811Z,34.39
2022-11-07T05:24:07.817Z,34.36
2022-11-07T05:24:37.814Z,34.34
2022-11-07T05:25:07.953Z,34.36
2022-11-07T05:25:37.931Z,34.25
2022-11-07T05:26:07.920Z,34.30
2022-11-07T05:26:38.039Z,34.34
2022-11-07T05:27:08.032Z,34.34
2022-11-07T05:27:38.042Z,34.34
2022-11-07T05:28:08.029Z,34.32
2022-11-07T05:28:39.813Z,34.37
2022-11-07T05:29:08.121Z,34.33
2022-11-07T05:29:38.238Z,34.31
2022-11-07T05:30:08.242Z,34.37
2022-11-07T05:30:38.240Z,34.36
2022-11-07T05:31:08.356Z,34.38
2022-11-07T05:31:38.354Z,34.32
2022-11-07T05:32:08.478Z,34.31
2022-11-07T05:32:38.592Z,34.35
2022-11-07T05:33:08.586Z,34.33
2022-11-07T05:33:38.704Z,34.32
2022-11-07T05:34:13.582Z,34.35
2022-11-07T05:34:38.767Z,34.29
2022-11-07T05:35:08.797Z,34.28
2022-11-07T05:35:38.832Z,34.29
2022-11-07T05:36:08.867Z,34.29
2022-11-07T05:36:38.894Z,34.27
2022-11-07T05:37:08.943Z,34.28
2022-11-07T05:37:38.983Z,34.24
2022-11-07T05:38:09.008Z,34.31
2022-11-07T05:38:39.042Z,34.28
2022-11-07T05:39:09.078Z,34.23
2022-11-07T05:39:39.107Z,34.27
2022-11-07T05:40:09.144Z,34.24
2022-11-07T05:40:39.196Z,34.22
2022-11-07T05:41:09.196Z,34.30
2022-11-07T05:41:39.234Z,34.21
2022-11-07T05:42:09.273Z,34.23
2022-11-07T05:42:39.302Z,34.19
2022-11-07T05:43:09.335Z,34.14
2022-11-07T05:43:39.367Z,34.15
2022-11-07T05:44:09.395Z,34.10
2022-11-07T05:44:39.431Z,34.05
2022-11-07T05:45:09.462Z,34.06
2022-11-07T05:45:39.496Z,34.03
2022-11-07T05:46:09.529Z,34.00
2022-11-07T05:46:39.561Z,33.93
2022-11-07T05:47:09.593Z,34.02
2022-11-07T05:47:39.628Z,34.03
2022-11-07T05:48:09.659Z,33.95
2022-11-07T05:48:39.713Z,34.00
2022-11-07T05:49:09.734Z,34.06
2022-11-07T05:49:39.766Z,34.05
2022-11-07T05:50:09.794Z,34.02
2022-11-07T05:50:39.822Z,33.97
2022-11-07T05:51:09.858Z,34.14
2022-11-07T05:51:39.890Z,34.14
2022-11-07T05:52:09.923Z,34.22
2022-11-07T05:52:39.992Z,34.13
2022-11-07T05:53:10.084Z,34.18
2022-11-07T05:53:40.124Z,34.22
2022-11-07T05:54:10.150Z,34.27
2022-11-07T05:54:40.187Z,34.24
2022-11-07T05:55:10.216Z,34.27
2022-11-07T05:55:40.244Z,34.32
2022-11-07T05:56:10.345Z,34.25
2022-11-07T05:56:40.342Z,34.33
2022-11-07T05:57:10.381Z,34.35
2022-11-07T05:57:40.429Z,34.35
2022-11-07T05:58:10.454Z,34.32
2022-11-07T05:58:40.503Z,34.35
2022-11-07T05:59:10.543Z,34.31
2022-11-07T05:59:40.580Z,34.38
2022-11-07T06:00:10.642Z,34.29
2022-11-07T06:00:40.704Z,34.36
2022-11-07T06:01:10.740Z,34.31
2022-11-07T06:01:40.915Z,34.31
2022-11-07T06:02:10.883Z,34.31
2022-11-07T06:02:40.934Z,34.31
2022-11-07T06:03:11.025Z,34.31
2022-11-07T06:03:40.960Z,34.33
2022-11-07T06:04:10.987Z,34.30
2022-11-07T06:04:41.024Z,34.27
2022-11-07T06:05:11.053Z,34.38
2022-11-07T06:05:41.085Z,34.34
2022-11-07T06:06:11.150Z,34.26
2022-11-07T06:06:41.161Z,34.29
2022-11-07T06:07:11.194Z,34.25
2022-11-07T06:07:41.229Z,34.34
2022-11-07T06:08:11.267Z,34.30
2022-11-07T06:08:41.297Z,34.30
2022-11-07T06:09:11.330Z,34.30
2022-11-07T06:09:41.369Z,34.34
2022-11-07T06:10:11.405Z,34.36
2022-11-07T06:10:41.439Z,34.34
2022-11-07T06:11:11.468Z,34.34
2022-11-07T06:11:41.525Z,34.33
2022-11-07T06:12:11.542Z,34.32
2022-11-07T06:12:41.572Z,34.32
2022-11-07T06:13:11.603Z,34.27
2022-11-07T06:13:41.639Z,34.30
2022-11-07T06:14:11.666Z,34.34
2022-11-07T06:14:41.705Z,34.37
2022-11-07T06:15:11.752Z,34.36
2022-11-07T06:15:41.777Z,34.36
2022-11-07T06:16:11.808Z,34.34
2022-11-07T06:16:41.843Z,34.39
2022-11-07T06:17:11.883Z,34.34
2022-11-07T06:17:41.916Z,34.44
2022-11-07T06:18:11.950Z,34.39
2022-11-07T06:18:42.039Z,34.45
2022-11-07T06:19:12.046Z,34.37
2022-11-07T06:19:42.077Z,34.37
2022-11-07T06:20:12.105Z,34.48
2022-11-07T06:20:42.134Z,34.59
2022-11-07T06:21:12.168Z,34.67
2022-11-07T06:21:42.203Z,34.65
2022-11-07T06:22:12.247Z,34.67
2022-11-07T06:22:42.281Z,34.68
2022-11-07T06:23:12.629Z,34.71
2022-11-07T06:23:42.419Z,34.54
2022-11-07T06:24:15.303Z,34.60
2022-11-07T06:24:42.440Z,34.57
2022-11-07T06:25:12.430Z,34.60
2022-11-07T06:25:42.548Z,34.51
2022-11-07T06:26:12.667Z,34.48
2022-11-07T06:26:42.663Z,34.56